Middlesex, NY (14507)

7:17 AM EDT on August 30, 2015 (GMT -0400)
Middlesex | | Change Station
CLOSE
Current Station
Personal Weather Station
Location: Middlesex, NY
Elevation: 1100 ft
Nearby Weather Stations

Elev 1100 ft 42.71 °N, 77.26 °W | Updated 10 seconds ago

Overcast
Overcast
64.3 °F
Feels Like 64.3 °F
N
0.0
Wind Variable Wind from ESE
Gusts 4.0 mph

Today
High -- | Low -- °F
--% Chance of Precip.
Yesterday
High -- | Low -- °F
Precip. -- in
6:31 AM 7:47 PM
Full, 99% visible
Pressure 30.08 in
Visibility 7.0 miles
Clouds Few 7000 ft
Mostly Cloudy 11000 ft
Dew Point 62 °F
Humidity 94%
Rainfall 0.00 in
Snow Depth Not available.
UV 0 out of 12
Pollen 9.80 out of 12
Air Quality Not available.
Flu Activity Not available.
METAR KPEO 301053Z AUTO 22004KT 7SM FEW070 BKN110 18/17 A3010 RMK AO2 RAE12 SLP186 P0000 T01830167
Pressure 30.08 in
Visibility 7.0 miles
Clouds Few 7000 ft
Mostly Cloudy 11000 ft
Dew Point 62 °F
Humidity 94%
Rainfall 0.00 in
Snow Depth Not available.
UV 0 out of 12
Pollen 9.80 out of 12
Air Quality Not available.
Flu Activity Not available.
METAR KPEO 301053Z AUTO 22004KT 7SM FEW070 BKN110 18/17 A3010 RMK AO2 RAE12 SLP186 P0000 T01830167

10-Day Weather Forecast

×

Almanac

Astronomy

Aug. 30, 2015 Rise Set
Actual Time
Civil Twilight
Nautical Twilight
Astronomical Twilight
Moon
Length of Visible Light
Length of Day
Tomorrow will be .
, % of the Moon is Illuminated

Today's Extremes

State Highs State Lows

Community

WunderPhotos

Upload Photos

1,850,925 photos uploaded!

WunderBlogs® & News

Nearby

Air Quality

  Air Quality AQ Index Pollutant
Not available.

Snow Depth

Station Depth Elevation

Earthquake Activity

City Distance Mag. Time & Date
Minimum magnitude displayed is 2.5.

Coastal Water Temperatures

Place Temperature

Stations

Nearby Weather Stations

Station Location Temp. Windchill Dew Point Humidity Wind Precip. Elev Updated Type